createdAt,value
2018-12-29T00:00:28.283Z,29.10
2018-12-29T00:02:56.953Z,29.10
2018-12-29T00:05:26.152Z,29.10
2018-12-29T00:07:55.131Z,29.10
2018-12-29T00:10:22.310Z,29.10
2018-12-29T00:12:51.683Z,29.10
2018-12-29T00:15:20.452Z,29.10
2018-12-29T00:17:48.029Z,29.10
2018-12-29T00:20:15.382Z,29.60
2018-12-29T00:22:44.992Z,29.10
2018-12-29T00:25:12.091Z,29.10
2018-12-29T00:27:40.015Z,29.10
2018-12-29T00:30:07.110Z,29.10
2018-12-29T00:32:34.214Z,29.10
2018-12-29T00:35:01.309Z,29.10
2018-12-29T00:37:28.615Z,29.10
2018-12-29T00:39:55.675Z,29.10
2018-12-29T00:42:22.767Z,29.10
2018-12-29T00:44:51.561Z,29.10
2018-12-29T00:47:19.224Z,29.10
2018-12-29T00:49:46.858Z,29.10
2018-12-29T00:52:13.960Z,29.10
2018-12-29T00:54:41.372Z,29.10
2018-12-29T00:57:08.429Z,29.00
2018-12-29T00:59:35.698Z,29.10
2018-12-29T01:02:02.808Z,29.10
2018-12-29T01:04:29.906Z,29.10
2018-12-29T01:06:56.994Z,29.10
2018-12-29T01:09:24.459Z,29.10
2018-12-29T01:11:51.564Z,29.10
2018-12-29T01:14:18.751Z,29.10
2018-12-29T01:16:46.723Z,29.10
2018-12-29T01:19:13.877Z,29.10
2018-12-29T01:21:40.971Z,29.10
2018-12-29T01:24:08.119Z,29.10
2018-12-29T01:26:35.505Z,29.10
2018-12-29T01:29:02.875Z,29.10
2018-12-29T01:31:29.971Z,29.10
2018-12-29T01:33:57.123Z,29.00
2018-12-29T01:36:24.585Z,29.10
2018-12-29T01:38:51.671Z,29.10
2018-12-29T01:41:19.054Z,29.00
2018-12-29T01:43:46.124Z,29.10
2018-12-29T01:46:13.209Z,29.00
2018-12-29T01:48:41.230Z,29.10
2018-12-29T01:51:08.353Z,29.00
2018-12-29T01:53:36.782Z,29.10
2018-12-29T01:56:03.862Z,29.10
2018-12-29T01:58:31.076Z,29.00
2018-12-29T02:00:58.137Z,29.10
2018-12-29T02:03:25.202Z,29.00
2018-12-29T02:05:53.006Z,29.10
2018-12-29T02:08:20.186Z,29.10
2018-12-29T02:10:47.270Z,29.10
2018-12-29T02:13:14.363Z,29.10
2018-12-29T02:15:41.438Z,29.10
2018-12-29T02:18:08.807Z,29.10
2018-12-29T02:20:35.863Z,29.10
2018-12-29T02:23:02.940Z,29.10
2018-12-29T02:25:30.178Z,29.00
2018-12-29T02:27:57.248Z,29.10
2018-12-29T02:30:24.352Z,29.00
2018-12-29T02:32:51.429Z,29.00
2018-12-29T02:35:18.529Z,29.00
2018-12-29T02:37:45.595Z,29.00
2018-12-29T02:40:12.696Z,29.10
2018-12-29T02:42:39.845Z,29.10
2018-12-29T02:45:06.932Z,29.10
2018-12-29T02:47:34.041Z,29.00
2018-12-29T02:50:01.128Z,29.00
2018-12-29T02:52:28.664Z,29.00
2018-12-29T02:54:55.730Z,29.00
2018-12-29T02:57:23.265Z,29.00
2018-12-29T02:59:50.320Z,29.00
2018-12-29T03:02:18.500Z,29.00
2018-12-29T03:04:45.713Z,29.00
2018-12-29T03:07:12.788Z,29.00
2018-12-29T03:09:40.160Z,29.00
2018-12-29T03:12:07.234Z,29.00
2018-12-29T03:14:35.243Z,29.00
2018-12-29T03:17:02.460Z,28.90
2018-12-29T03:19:29.612Z,29.00
2018-12-29T03:21:56.698Z,29.00
2018-12-29T03:24:24.569Z,29.10
2018-12-29T03:26:51.689Z,29.00
2018-12-29T03:29:19.916Z,29.00
2018-12-29T03:31:47.105Z,29.00
2018-12-29T03:34:14.245Z,29.00
2018-12-29T03:36:41.498Z,29.00
2018-12-29T03:39:08.572Z,29.00
2018-12-29T03:41:36.497Z,29.00
2018-12-29T03:44:03.590Z,29.00
2018-12-29T03:46:30.723Z,29.00
2018-12-29T03:48:57.786Z,29.00
2018-12-29T03:51:24.847Z,28.90
2018-12-29T03:53:52.316Z,29.00
2018-12-29T03:56:20.695Z,28.90
2018-12-29T03:58:48.139Z,28.90
2018-12-29T04:01:15.259Z,28.90
2018-12-29T04:03:42.360Z,28.90
2018-12-29T04:06:09.436Z,28.90
2018-12-29T04:08:36.728Z,29.00
2018-12-29T04:11:03.807Z,28.90
2018-12-29T04:13:34.628Z,29.00
2018-12-29T04:16:02.816Z,29.00
2018-12-29T04:18:30.107Z,28.90
2018-12-29T04:20:57.727Z,29.00
2018-12-29T04:23:25.373Z,29.00
2018-12-29T04:25:52.468Z,29.10
2018-12-29T04:28:19.535Z,29.10
2018-12-29T04:30:46.714Z,29.00
2018-12-29T04:33:14.826Z,29.10
2018-12-29T04:38:29.809Z,29.20
2018-12-29T04:43:49.483Z,29.20
2018-12-29T04:46:18.305Z,29.20
2018-12-29T04:48:45.379Z,29.10
2018-12-29T04:51:12.471Z,29.00
2018-12-29T04:53:39.559Z,28.80
2018-12-29T04:56:06.813Z,28.80
2018-12-29T04:58:33.868Z,28.90
2018-12-29T05:01:00.971Z,28.90
2018-12-29T05:03:28.030Z,29.10
2018-12-29T05:05:58.933Z,29.00
2018-12-29T05:08:27.675Z,29.10
2018-12-29T05:10:58.531Z,28.90
2018-12-29T05:13:27.963Z,29.00
2018-12-29T05:15:55.644Z,29.10
2018-12-29T05:18:22.704Z,29.00
2018-12-29T05:20:49.767Z,29.10
2018-12-29T05:23:18.273Z,29.10
2018-12-29T05:25:45.345Z,29.10
2018-12-29T05:28:12.593Z,29.00
2018-12-29T05:30:39.651Z,29.00
2018-12-29T05:33:06.720Z,29.00
2018-12-29T05:35:33.826Z,29.00
2018-12-29T05:38:00.908Z,29.00
2018-12-29T05:40:28.017Z,28.90
2018-12-29T05:42:55.116Z,28.90
2018-12-29T05:45:22.170Z,28.90
2018-12-29T05:47:49.362Z,29.50
2018-12-29T05:50:16.455Z,28.90
2018-12-29T05:52:43.561Z,28.90
2018-12-29T05:55:10.633Z,28.90
2018-12-29T05:57:37.697Z,28.90
2018-12-29T06:00:04.832Z,28.90
2018-12-29T06:02:31.905Z,28.90
2018-12-29T06:04:59.003Z,28.90
2018-12-29T06:07:26.151Z,28.90
2018-12-29T06:09:53.219Z,28.90
2018-12-29T06:12:20.321Z,28.90
2018-12-29T06:14:47.423Z,28.90
2018-12-29T06:17:15.038Z,28.90
2018-12-29T06:19:42.219Z,28.90
2018-12-29T06:22:09.283Z,28.90
2018-12-29T06:24:36.371Z,28.90
2018-12-29T06:27:03.443Z,28.90
2018-12-29T06:29:30.630Z,28.90
2018-12-29T06:31:57.700Z,28.90
2018-12-29T06:34:24.766Z,28.90
2018-12-29T06:36:51.963Z,28.80
2018-12-29T06:39:19.092Z,28.80
2018-12-29T06:41:46.190Z,28.80
2018-12-29T06:44:13.294Z,28.90
2018-12-29T06:46:40.391Z,28.90
2018-12-29T06:49:07.481Z,28.90
2018-12-29T06:51:34.565Z,29.00
2018-12-29T06:54:01.677Z,28.90
2018-12-29T06:56:28.854Z,28.80
2018-12-29T06:58:57.443Z,28.80
2018-12-29T07:01:24.558Z,28.80
2018-12-29T07:03:51.790Z,28.80
2018-12-29T07:06:19.378Z,28.80
2018-12-29T07:08:47.867Z,28.90
2018-12-29T07:11:18.159Z,28.80
2018-12-29T07:13:45.267Z,28.90
2018-12-29T07:16:12.330Z,28.90
2018-12-29T07:18:39.563Z,29.00
2018-12-29T07:21:06.669Z,29.20
2018-12-29T07:23:33.775Z,29.10
2018-12-29T07:26:00.882Z,29.20
2018-12-29T07:28:29.723Z,29.20
2018-12-29T07:30:57.091Z,29.70
2018-12-29T07:33:26.125Z,29.20
2018-12-29T07:35:54.464Z,29.30
2018-12-29T07:38:23.262Z,29.20
2018-12-29T07:40:52.404Z,29.30
2018-12-29T07:43:20.018Z,29.30
2018-12-29T07:45:49.623Z,29.30
2018-12-29T07:48:18.456Z,29.30
2018-12-29T07:50:45.857Z,29.30
2018-12-29T07:53:15.877Z,29.50
2018-12-29T07:58:32.753Z,29.40
2018-12-29T08:01:00.171Z,29.50
2018-12-29T08:03:34.541Z,29.50
2018-12-29T08:06:01.773Z,29.50
2018-12-29T08:08:29.927Z,29.60
2018-12-29T08:10:58.470Z,29.50
2018-12-29T08:13:35.702Z,29.70
2018-12-29T08:15:59.149Z,29.30
2018-12-29T08:18:26.225Z,29.60
2018-12-29T08:20:53.298Z,29.70
2018-12-29T08:23:20.555Z,29.80
2018-12-29T08:25:47.619Z,29.80
2018-12-29T08:37:00.540Z,29.70
2018-12-29T08:39:35.914Z,30.00
2018-12-29T08:42:13.479Z,29.90
2018-12-29T08:44:39.003Z,29.90
2018-12-29T08:47:07.131Z,30.30
2018-12-29T08:49:35.112Z,29.80
2018-12-29T08:52:15.335Z,29.90
2018-12-29T08:54:56.288Z,29.80
2018-12-29T08:57:33.932Z,29.90
2018-12-29T09:02:50.282Z,29.70
2018-12-29T09:05:17.386Z,29.70
2018-12-29T09:07:46.206Z,29.70
2018-12-29T09:10:16.014Z,29.60
2018-12-29T09:12:44.836Z,29.60
2018-12-29T09:15:14.261Z,29.40
2018-12-29T09:17:41.463Z,29.40
2018-12-29T09:20:08.638Z,29.70
2018-12-29T09:22:35.754Z,29.60
2018-12-29T09:25:02.872Z,29.60
2018-12-29T09:27:30.013Z,29.80
2018-12-29T09:29:57.106Z,29.70
2018-12-29T09:32:25.352Z,29.70
2018-12-29T09:35:10.711Z,29.90
2018-12-29T09:37:39.288Z,29.90
2018-12-29T09:40:06.376Z,29.90
2018-12-29T09:42:33.458Z,30.30
2018-12-29T09:45:00.528Z,29.90
2018-12-29T09:47:27.698Z,29.80
2018-12-29T09:49:54.851Z,29.50
2018-12-29T09:52:21.919Z,29.30
2018-12-29T09:54:48.992Z,29.20
2018-12-29T09:57:16.274Z,29.20
2018-12-29T09:59:43.353Z,29.20
2018-12-29T10:02:10.466Z,29.20
2018-12-29T10:04:37.592Z,29.20
2018-12-29T10:07:04.681Z,29.10
2018-12-29T10:09:31.733Z,29.20
2018-12-29T10:11:58.831Z,29.10
2018-12-29T10:14:25.977Z,29.10
2018-12-29T10:16:53.151Z,29.20
2018-12-29T10:19:20.295Z,29.20
2018-12-29T10:21:47.404Z,29.10
2018-12-29T10:24:14.475Z,29.10
2018-12-29T10:26:41.697Z,29.30
2018-12-29T10:29:08.775Z,29.40
2018-12-29T10:31:35.897Z,29.30
2018-12-29T10:34:02.966Z,29.30
2018-12-29T10:36:30.027Z,29.30
2018-12-29T10:38:57.323Z,29.30
2018-12-29T10:41:24.383Z,29.30
2018-12-29T10:43:51.595Z,29.30
2018-12-29T10:46:18.721Z,29.40
2018-12-29T10:48:45.928Z,29.40
2018-12-29T10:51:13.012Z,29.40
2018-12-29T10:53:40.083Z,29.40
2018-12-29T10:56:07.263Z,29.30
2018-12-29T10:58:34.320Z,29.40
2018-12-29T11:01:01.435Z,29.30
2018-12-29T11:03:28.559Z,29.30
2018-12-29T11:05:55.682Z,29.30
2018-12-29T11:08:22.755Z,29.30
2018-12-29T11:10:49.853Z,29.20
2018-12-29T11:13:17.109Z,29.30
2018-12-29T11:15:44.186Z,29.40
2018-12-29T11:18:11.315Z,29.20
2018-12-29T11:20:38.428Z,29.20
2018-12-29T11:23:05.539Z,29.30
2018-12-29T11:25:32.618Z,29.30
2018-12-29T11:27:59.918Z,29.30
2018-12-29T11:30:26.987Z,29.30
2018-12-29T11:32:54.066Z,29.20
2018-12-29T11:35:28.800Z,29.30
2018-12-29T11:37:53.153Z,29.30
2018-12-29T11:40:20.224Z,29.30
2018-12-29T11:42:47.318Z,29.30
2018-12-29T11:45:14.399Z,29.40
2018-12-29T11:47:41.543Z,29.60
2018-12-29T11:50:08.667Z,29.50
2018-12-29T11:52:35.807Z,29.60
2018-12-29T11:55:02.901Z,29.80
2018-12-29T11:57:29.977Z,29.50
2018-12-29T11:59:57.267Z,29.50
2018-12-29T12:02:24.863Z,29.60
2018-12-29T12:04:52.070Z,29.60
2018-12-29T12:07:19.175Z,29.60
2018-12-29T12:09:46.318Z,29.60
2018-12-29T12:12:13.463Z,29.50
2018-12-29T12:14:40.582Z,29.60
2018-12-29T12:17:07.918Z,29.50
2018-12-29T12:19:35.351Z,29.60
2018-12-29T12:22:02.411Z,29.50
2018-12-29T12:24:29.521Z,29.50
2018-12-29T12:26:56.647Z,29.50
2018-12-29T12:29:23.882Z,29.50
2018-12-29T12:31:51.037Z,29.60
2018-12-29T12:34:18.174Z,29.40
2018-12-29T12:36:45.438Z,29.50
2018-12-29T12:39:12.584Z,29.50
2018-12-29T12:41:39.755Z,29.50
2018-12-29T12:44:06.895Z,29.40
2018-12-29T12:46:34.063Z,29.40
2018-12-29T12:49:01.297Z,29.50
2018-12-29T12:51:28.500Z,29.70
2018-12-29T12:53:55.682Z,29.20
2018-12-29T12:56:23.075Z,29.40
2018-12-29T12:58:50.453Z,29.30
2018-12-29T13:01:17.901Z,29.50
2018-12-29T13:03:45.004Z,29.50
2018-12-29T13:06:12.146Z,29.60
2018-12-29T13:08:39.336Z,29.70
2018-12-29T13:11:06.428Z,29.60
2018-12-29T13:13:33.602Z,29.40
2018-12-29T13:16:00.670Z,29.50
2018-12-29T13:18:27.847Z,29.80
2018-12-29T13:20:56.835Z,29.70
2018-12-29T13:23:23.978Z,29.90
2018-12-29T13:25:51.314Z,30.00
2018-12-29T13:28:19.726Z,30.00
2018-12-29T13:30:48.524Z,30.00
2018-12-29T13:33:15.726Z,30.10
2018-12-29T13:35:42.803Z,30.00
2018-12-29T13:38:10.018Z,30.10
2018-12-29T13:40:37.074Z,30.00
2018-12-29T13:43:04.192Z,30.10
2018-12-29T13:48:27.484Z,30.10
2018-12-29T13:50:55.723Z,30.10
2018-12-29T13:53:22.792Z,30.00
2018-12-29T13:55:49.986Z,30.00
2018-12-29T13:58:17.058Z,29.90
2018-12-29T14:00:44.214Z,30.00
2018-12-29T14:03:11.563Z,29.80
2018-12-29T14:05:38.660Z,29.80
2018-12-29T14:08:05.804Z,29.70
2018-12-29T14:10:32.965Z,29.80
2018-12-29T14:13:00.376Z,29.60
2018-12-29T14:15:27.551Z,29.70
2018-12-29T14:17:54.753Z,29.60
2018-12-29T14:20:21.835Z,29.60
2018-12-29T14:22:48.941Z,29.60
2018-12-29T14:25:16.043Z,29.60
2018-12-29T14:27:43.120Z,29.60
2018-12-29T14:30:11.627Z,29.60
2018-12-29T14:32:38.721Z,29.60
2018-12-29T14:35:05.796Z,29.50
2018-12-29T14:37:33.179Z,29.60
2018-12-29T14:40:00.318Z,29.50
2018-12-29T14:42:27.758Z,29.50
2018-12-29T14:44:54.956Z,29.50
2018-12-29T14:47:22.704Z,29.50
2018-12-29T14:49:50.050Z,29.40
2018-12-29T14:52:17.150Z,29.60
2018-12-29T14:54:44.320Z,29.70
2018-12-29T14:57:11.650Z,29.70
2018-12-29T14:59:39.110Z,29.70
2018-12-29T15:02:07.334Z,29.70
2018-12-29T15:04:34.497Z,29.70
2018-12-29T15:07:01.574Z,29.70
2018-12-29T15:09:29.057Z,29.70
2018-12-29T15:11:56.199Z,29.70
2018-12-29T15:14:25.552Z,29.70
2018-12-29T15:16:52.951Z,29.70
2018-12-29T15:19:20.111Z,29.60
2018-12-29T15:21:47.251Z,29.60
2018-12-29T15:24:14.350Z,29.60
2018-12-29T15:26:41.524Z,29.60
2018-12-29T15:29:09.161Z,29.60
2018-12-29T15:31:36.302Z,29.60
2018-12-29T15:34:03.370Z,29.60
2018-12-29T15:36:30.719Z,29.50
2018-12-29T15:38:57.871Z,29.50
2018-12-29T15:41:25.063Z,29.60
2018-12-29T15:43:52.588Z,29.50
2018-12-29T15:46:19.731Z,29.50
2018-12-29T15:48:51.176Z,29.40
2018-12-29T15:51:15.742Z,29.50
2018-12-29T15:53:42.917Z,29.40
2018-12-29T15:56:10.168Z,29.50
2018-12-29T15:58:37.304Z,29.50
2018-12-29T16:01:04.651Z,29.50
2018-12-29T16:03:31.795Z,29.40
2018-12-29T16:05:58.970Z,29.50
2018-12-29T16:08:26.657Z,29.40
2018-12-29T16:10:54.157Z,29.60
2018-12-29T16:13:21.549Z,29.60
2018-12-29T16:15:50.462Z,29.60
2018-12-29T16:18:19.578Z,29.60
2018-12-29T16:20:54.293Z,29.60
2018-12-29T16:23:19.454Z,29.50
2018-12-29T16:25:47.124Z,29.60
2018-12-29T16:28:14.295Z,29.60
2018-12-29T16:30:41.459Z,29.60
2018-12-29T16:33:08.640Z,29.60
2018-12-29T16:35:35.891Z,29.60
2018-12-29T16:38:03.508Z,29.60
2018-12-29T16:40:30.644Z,29.60
2018-12-29T16:42:57.938Z,29.60
2018-12-29T16:45:25.201Z,29.70
2018-12-29T16:47:52.984Z,29.50
2018-12-29T16:50:20.170Z,29.40
2018-12-29T16:52:47.372Z,29.30
2018-12-29T16:55:14.571Z,29.50
2018-12-29T16:57:42.499Z,29.20
2018-12-29T17:00:10.063Z,29.30
2018-12-29T17:02:37.239Z,29.50
2018-12-29T17:05:04.875Z,29.30
2018-12-29T17:07:32.167Z,29.40
2018-12-29T17:09:59.353Z,29.90
2018-12-29T17:12:26.488Z,29.20
2018-12-29T17:14:53.646Z,29.30
2018-12-29T17:17:21.848Z,29.50
2018-12-29T17:19:48.979Z,29.40
2018-12-29T17:22:17.224Z,29.50
2018-12-29T17:24:44.503Z,29.50
2018-12-29T17:27:12.165Z,29.40
2018-12-29T17:29:39.242Z,29.40
2018-12-29T17:32:06.392Z,29.40
2018-12-29T17:34:33.583Z,29.40
2018-12-29T17:37:03.060Z,29.40
2018-12-29T17:39:30.120Z,29.40
2018-12-29T17:41:57.389Z,29.40
2018-12-29T17:44:24.609Z,29.40
2018-12-29T17:46:51.739Z,29.30
2018-12-29T17:49:22.847Z,29.70
2018-12-29T17:51:47.664Z,29.40
2018-12-29T17:54:14.806Z,29.30
2018-12-29T17:56:42.148Z,29.30
2018-12-29T17:59:09.495Z,29.30
2018-12-29T18:01:36.660Z,29.30
2018-12-29T18:04:03.819Z,29.30
2018-12-29T18:06:31.136Z,29.30
2018-12-29T18:08:58.472Z,29.30
2018-12-29T18:11:25.686Z,29.30
2018-12-29T18:13:52.837Z,29.30
2018-12-29T18:16:20.349Z,29.30
2018-12-29T18:18:47.497Z,29.40
2018-12-29T18:21:14.677Z,29.40
2018-12-29T18:23:41.850Z,29.30
2018-12-29T18:26:08.991Z,29.30
2018-12-29T18:28:37.619Z,29.20
2018-12-29T18:31:04.882Z,29.30
2018-12-29T18:33:37.260Z,29.30
2018-12-29T18:36:00.817Z,29.10
2018-12-29T18:38:27.928Z,29.10
2018-12-29T18:40:55.085Z,29.10
2018-12-29T18:43:22.211Z,29.10
2018-12-29T18:45:49.368Z,29.20
2018-12-29T18:48:16.767Z,29.30
2018-12-29T18:50:44.287Z,29.20
2018-12-29T18:53:11.538Z,29.30
2018-12-29T18:55:38.699Z,29.30
2018-12-29T18:58:05.910Z,29.40
2018-12-29T19:00:33.278Z,29.40
2018-12-29T19:03:00.768Z,29.40
2018-12-29T19:05:28.194Z,29.40
2018-12-29T19:07:55.428Z,29.40
2018-12-29T19:10:22.984Z,29.40
2018-12-29T19:12:51.644Z,29.50
2018-12-29T19:15:19.088Z,29.60
2018-12-29T19:17:46.763Z,29.60
2018-12-29T19:20:14.650Z,29.60
2018-12-29T19:22:41.759Z,29.60
2018-12-29T19:25:08.893Z,29.60
2018-12-29T19:27:36.245Z,29.50
2018-12-29T19:30:03.420Z,29.50
2018-12-29T19:32:30.967Z,29.40
2018-12-29T19:34:58.457Z,29.40
2018-12-29T19:37:25.928Z,29.50
2018-12-29T19:39:53.459Z,29.50
2018-12-29T19:42:20.748Z,29.50
2018-12-29T19:44:48.417Z,29.60
2018-12-29T19:47:15.578Z,29.50
2018-12-29T19:49:43.247Z,29.50
2018-12-29T19:52:10.387Z,29.50
2018-12-29T19:54:37.699Z,29.60
2018-12-29T19:57:05.379Z,29.60
2018-12-29T19:59:32.927Z,29.50
2018-12-29T20:02:00.459Z,29.60
2018-12-29T20:04:27.795Z,29.50
2018-12-29T20:06:55.292Z,29.30
2018-12-29T20:09:24.537Z,29.20
2018-12-29T20:11:51.699Z,29.30
2018-12-29T20:14:18.920Z,29.40
2018-12-29T20:16:46.071Z,29.50
2018-12-29T20:19:13.419Z,29.60
2018-12-29T20:21:40.602Z,29.50
2018-12-29T20:24:07.878Z,29.50
2018-12-29T20:26:35.599Z,29.50
2018-12-29T20:29:02.955Z,29.50
2018-12-29T20:31:30.252Z,29.40
2018-12-29T20:33:57.470Z,29.50
2018-12-29T20:36:24.670Z,29.50
2018-12-29T20:38:51.929Z,29.40
2018-12-29T20:41:19.387Z,29.40
2018-12-29T20:43:46.614Z,29.50
2018-12-29T20:46:13.835Z,29.40
2018-12-29T20:48:45.311Z,29.50
2018-12-29T20:51:26.924Z,29.40
2018-12-29T20:54:05.721Z,29.40
2018-12-29T20:56:34.236Z,29.40
2018-12-29T20:59:01.473Z,29.40
2018-12-29T21:01:29.718Z,29.40
2018-12-29T21:03:59.897Z,29.50
2018-12-29T21:06:30.338Z,29.60
2018-12-29T21:08:57.511Z,29.50
2018-12-29T21:11:25.385Z,29.40
2018-12-29T21:13:52.614Z,29.50
2018-12-29T21:16:19.970Z,29.50
2018-12-29T21:18:47.687Z,29.50
2018-12-29T21:21:14.844Z,29.50
2018-12-29T21:23:44.569Z,29.50
2018-12-29T21:26:11.691Z,29.50
2018-12-29T21:28:39.785Z,29.50
2018-12-29T21:31:07.209Z,29.50
2018-12-29T21:33:35.831Z,29.50
2018-12-29T21:36:04.807Z,29.60
2018-12-29T21:38:32.092Z,29.50
2018-12-29T21:40:59.628Z,29.60
2018-12-29T21:43:27.451Z,29.70
2018-12-29T21:45:54.835Z,30.20
2018-12-29T21:48:22.232Z,29.70
2018-12-29T21:50:49.507Z,29.70
2018-12-29T21:53:16.737Z,29.70
2018-12-29T21:55:44.489Z,29.70
2018-12-29T21:58:12.196Z,29.70
2018-12-29T22:00:39.691Z,29.80
2018-12-29T22:03:07.272Z,29.70
2018-12-29T22:05:34.528Z,29.70
2018-12-29T22:08:02.021Z,29.70
2018-12-29T22:10:29.268Z,29.70
2018-12-29T22:12:56.434Z,29.70
2018-12-29T22:15:23.611Z,29.70
2018-12-29T22:17:51.653Z,29.70
2018-12-29T22:20:19.707Z,29.70
2018-12-29T22:22:46.941Z,29.70
2018-12-29T22:25:14.123Z,29.70
2018-12-29T22:27:42.185Z,29.70
2018-12-29T22:30:09.322Z,29.70
2018-12-29T22:32:36.913Z,29.70
2018-12-29T22:35:09.289Z,29.70
2018-12-29T22:37:36.884Z,29.70
2018-12-29T22:40:04.047Z,29.60
2018-12-29T22:42:31.207Z,29.70
2018-12-29T22:44:58.441Z,29.60
2018-12-29T22:47:26.375Z,29.60
2018-12-29T22:49:55.236Z,29.60
2018-12-29T22:52:22.448Z,29.70
2018-12-29T22:54:49.657Z,29.70
2018-12-29T22:57:16.843Z,29.70
2018-12-29T22:59:43.913Z,29.60
2018-12-29T23:02:11.299Z,29.70
2018-12-29T23:04:38.405Z,29.60
2018-12-29T23:07:06.011Z,29.60
2018-12-29T23:09:33.261Z,30.20
2018-12-29T23:12:00.427Z,29.70
2018-12-29T23:14:27.594Z,29.60
2018-12-29T23:16:55.460Z,29.60
2018-12-29T23:19:23.056Z,29.60
2018-12-29T23:21:50.155Z,29.60
2018-12-29T23:24:17.521Z,29.60
2018-12-29T23:26:44.692Z,29.70
2018-12-29T23:29:12.249Z,29.60
2018-12-29T23:31:39.475Z,29.60
2018-12-29T23:34:06.652Z,29.70
2018-12-29T23:36:33.780Z,29.60
2018-12-29T23:39:01.071Z,29.70
2018-12-29T23:41:28.213Z,29.70
2018-12-29T23:43:55.384Z,29.60
2018-12-29T23:46:22.639Z,29.90
2018-12-29T23:48:49.776Z,29.60
2018-12-29T23:51:17.021Z,29.60
2018-12-29T23:53:44.167Z,29.60
2018-12-29T23:56:11.854Z,29.60
2018-12-29T23:58:38.982Z,29.60
